sensor_id;sensor_type;location;lat;lon;timestamp;pressure;altitude;pressure_sealevel;temperature;humidity
46448;BME280;32145;50.390;30.778;2023-04-01T00:01:54;98763.91;;;5.86;88.82
46448;BME280;32145;50.390;30.778;2023-04-01T00:04:50;98763.91;;;5.86;88.42
46448;BME280;32145;50.390;30.778;2023-04-01T00:07:44;98758.06;;;5.89;88.96
46448;BME280;32145;50.390;30.778;2023-04-01T00:10:40;98759.25;;;5.93;88.41
46448;BME280;32145;50.390;30.778;2023-04-01T00:13:34;98760.06;;;5.93;88.62
46448;BME280;32145;50.390;30.778;2023-04-01T00:16:29;98759.81;;;5.95;89.38
46448;BME280;32145;50.390;30.778;2023-04-01T00:19:23;98759.38;;;5.98;88.68
46448;BME280;32145;50.390;30.778;2023-04-01T00:22:20;98762.66;;;6.00;88.88
46448;BME280;32145;50.390;30.778;2023-04-01T00:25:14;98757.66;;;6.04;89.10
46448;BME280;32145;50.390;30.778;2023-04-01T00:28:09;98754.97;;;6.04;88.72
46448;BME280;32145;50.390;30.778;2023-04-01T00:31:06;98753.69;;;6.06;88.91
46448;BME280;32145;50.390;30.778;2023-04-01T00:34:02;98748.31;;;6.06;89.48
46448;BME280;32145;50.390;30.778;2023-04-01T00:36:59;98752.41;;;6.09;88.98
46448;BME280;32145;50.390;30.778;2023-04-01T00:39:55;98743.25;;;6.10;89.43
46448;BME280;32145;50.390;30.778;2023-04-01T00:42:51;98751.94;;;6.12;89.63
46448;BME280;32145;50.390;30.778;2023-04-01T00:45:49;98746.91;;;6.16;88.71
46448;BME280;32145;50.390;30.778;2023-04-01T00:48:48;98752.88;;;6.18;89.05
46448;BME280;32145;50.390;30.778;2023-04-01T00:51:48;98746.44;;;6.19;88.84
46448;BME280;32145;50.390;30.778;2023-04-01T00:54:47;98747.84;;;6.22;88.80
46448;BME280;32145;50.390;30.778;2023-04-01T00:57:46;98749.72;;;6.21;89.26
46448;BME280;32145;50.390;30.778;2023-04-01T01:00:46;98744.91;;;6.23;88.56
46448;BME280;32145;50.390;30.778;2023-04-01T01:03:45;98749.72;;;6.21;88.89
46448;BME280;32145;50.390;30.778;2023-04-01T01:06:47;98741.44;;;6.23;88.68
46448;BME280;32145;50.390;30.778;2023-04-01T01:09:50;98740.59;;;6.22;88.69
46448;BME280;32145;50.390;30.778;2023-04-01T01:12:57;98751.38;;;6.22;89.34
46448;BME280;32145;50.390;30.778;2023-04-01T01:15:59;98743.06;;;6.24;89.19
46448;BME280;32145;50.390;30.778;2023-04-01T01:19:01;98745.28;;;6.27;89.19
46448;BME280;32145;50.390;30.778;2023-04-01T01:22:13;98749.63;;;6.28;88.88
46448;BME280;32145;50.390;30.778;2023-04-01T01:25:30;98755.56;;;6.30;88.57
46448;BME280;32145;50.390;30.778;2023-04-01T01:28:38;98756.41;;;6.30;89.32
46448;BME280;32145;50.390;30.778;2023-04-01T01:31:44;98752.66;;;6.31;88.92
46448;BME280;32145;50.390;30.778;2023-04-01T01:34:48;98748.94;;;6.32;89.12
46448;BME280;32145;50.390;30.778;2023-04-01T01:37:46;98758.88;;;6.32;88.90
46448;BME280;32145;50.390;30.778;2023-04-01T01:40:46;98753.47;;;6.32;88.58
46448;BME280;32145;50.390;30.778;2023-04-01T01:43:44;98754.31;;;6.32;88.52
46448;BME280;32145;50.390;30.778;2023-04-01T01:46:41;98759.47;;;6.34;88.31
46448;BME280;32145;50.390;30.778;2023-04-01T01:49:39;98763.78;;;6.35;89.09
46448;BME280;32145;50.390;30.778;2023-04-01T01:52:37;98767.28;;;6.36;88.68
46448;BME280;32145;50.390;30.778;2023-04-01T01:55:37;98771.03;;;6.35;88.27
46448;BME280;32145;50.390;30.778;2023-04-01T01:58:35;98768.34;;;6.35;88.35
46448;BME280;32145;50.390;30.778;2023-04-01T02:01:37;98775.63;;;6.34;88.62
46448;BME280;32145;50.390;30.778;2023-04-01T02:04:37;98769.97;;;6.36;88.74
46448;BME280;32145;50.390;30.778;2023-04-01T02:07:35;98771.03;;;6.35;88.89
46448;BME280;32145;50.390;30.778;2023-04-01T02:10:37;98772.66;;;6.36;88.61
46448;BME280;32145;50.390;30.778;2023-04-01T02:13:38;98770.56;;;6.38;88.49
46448;BME280;32145;50.390;30.778;2023-04-01T02:16:40;98768.94;;;6.37;88.51
46448;BME280;32145;50.390;30.778;2023-04-01T02:19:42;98779.47;;;6.38;89.07
46448;BME280;32145;50.390;30.778;2023-04-01T02:22:42;98773.03;;;6.39;88.39
46448;BME280;32145;50.390;30.778;2023-04-01T02:25:42;98782.50;;;6.42;88.49
46448;BME280;32145;50.390;30.778;2023-04-01T02:28:40;98774.19;;;6.43;88.55
46448;BME280;32145;50.390;30.778;2023-04-01T02:31:38;98775.50;;;6.41;88.95
46448;BME280;32145;50.390;30.778;2023-04-01T02:34:36;98770.69;;;6.43;88.60
46448;BME280;32145;50.390;30.778;2023-04-01T02:37:33;98766.97;;;6.44;89.16
46448;BME280;32145;50.390;30.778;2023-04-01T02:40:29;98769.66;;;6.44;88.65
46448;BME280;32145;50.390;30.778;2023-04-01T02:43:27;98775.03;;;6.44;88.50
46448;BME280;32145;50.390;30.778;2023-04-01T02:46:23;98773.97;;;6.45;88.96
46448;BME280;32145;50.390;30.778;2023-04-01T02:49:20;98773.97;;;6.45;88.89
46448;BME280;32145;50.390;30.778;2023-04-01T02:52:16;98773.38;;;6.43;89.20
46448;BME280;32145;50.390;30.778;2023-04-01T02:55:12;98771.28;;;6.45;88.90
46448;BME280;32145;50.390;30.778;2023-04-01T02:58:06;98779.34;;;6.45;88.87
46448;BME280;32145;50.390;30.778;2023-04-01T03:01:02;98772.91;;;6.46;88.50
46448;BME280;32145;50.390;30.778;2023-04-01T03:03:56;98770.44;;;6.44;89.05
46448;BME280;32145;50.390;30.778;2023-04-01T03:06:51;98769.38;;;6.45;88.30
46448;BME280;32145;50.390;30.778;2023-04-01T03:09:45;98774.53;;;6.47;89.04
46448;BME280;32145;50.390;30.778;2023-04-01T03:12:39;98770.81;;;6.48;88.95
46448;BME280;32145;50.390;30.778;2023-04-01T03:15:34;98773.25;;;6.50;88.92
46448;BME280;32145;50.390;30.778;2023-04-01T03:18:29;98781.59;;;6.48;88.69
46448;BME280;32145;50.390;30.778;2023-04-01T03:21:24;98780.31;;;6.51;88.65
46448;BME280;32145;50.390;30.778;2023-04-01T03:24:19;98788.16;;;6.52;88.43
46448;BME280;32145;50.390;30.778;2023-04-01T03:27:14;98773.84;;;6.52;88.53
46448;BME280;32145;50.390;30.778;2023-04-01T03:30:09;98783.00;;;6.51;88.15
46448;BME280;32145;50.390;30.778;2023-04-01T03:33:03;98775.72;;;6.51;88.15
46448;BME280;32145;50.390;30.778;2023-04-01T03:35:59;98777.38;;;6.52;88.35
46448;BME280;32145;50.390;30.778;2023-04-01T03:38:53;98781.34;;;6.50;88.68
46448;BME280;32145;50.390;30.778;2023-04-01T03:41:47;98781.09;;;6.51;88.86
46448;BME280;32145;50.390;30.778;2023-04-01T03:44:42;98784.84;;;6.50;88.79
46448;BME280;32145;50.390;30.778;2023-04-01T03:47:36;98790.69;;;6.47;88.64
46448;BME280;32145;50.390;30.778;2023-04-01T03:50:31;98784.28;;;6.48;89.12
46448;BME280;32145;50.390;30.778;2023-04-01T03:53:28;98794.44;;;6.46;88.47
46448;BME280;32145;50.390;30.778;2023-04-01T03:56:25;98799.16;;;6.51;88.77
46448;BME280;32145;50.390;30.778;2023-04-01T03:59:21;98794.00;;;6.49;88.93
46448;BME280;32145;50.390;30.778;2023-04-01T04:02:17;98791.06;;;6.51;88.55
46448;BME280;32145;50.390;30.778;2023-04-01T04:05:14;98793.53;;;6.52;88.59
46448;BME280;32145;50.390;30.778;2023-04-01T04:08:10;98797.03;;;6.53;89.06
46448;BME280;32145;50.390;30.778;2023-04-01T04:11:08;98796.34;;;6.57;88.41
46448;BME280;32145;50.390;30.778;2023-04-01T04:14:04;98802.91;;;6.62;88.67
46448;BME280;32145;50.390;30.778;2023-04-01T04:17:01;98808.28;;;6.62;88.09
46448;BME280;32145;50.390;30.778;2023-04-01T04:19:57;98811.53;;;6.64;88.50
46448;BME280;32145;50.390;30.778;2023-04-01T04:22:53;98803.34;;;6.58;88.38
46448;BME280;32145;50.390;30.778;2023-04-01T04:25:56;98815.75;;;6.60;88.29
46448;BME280;32145;50.390;30.778;2023-04-01T04:28:53;98816.25;;;6.56;88.64
46448;BME280;32145;50.390;30.778;2023-04-01T04:31:47;98823.16;;;6.52;88.72
46448;BME280;32145;50.390;30.778;2023-04-01T04:34:41;98832.75;;;6.60;88.76
46448;BME280;32145;50.390;30.778;2023-04-01T04:37:36;98827.69;;;6.64;88.03
46448;BME280;32145;50.390;30.778;2023-04-01T04:40:30;98820.22;;;6.66;87.92
46448;BME280;32145;50.390;30.778;2023-04-01T04:43:25;98829.38;;;6.65;87.87
46448;BME280;32145;50.390;30.778;2023-04-01T04:46:21;98826.53;;;6.60;88.50
46448;BME280;32145;50.390;30.778;2023-04-01T04:49:16;98824.31;;;6.56;88.22
46448;BME280;32145;50.390;30.778;2023-04-01T04:52:10;98811.09;;;6.55;88.66
46448;BME280;32145;50.390;30.778;2023-04-01T04:55:05;98812.25;;;6.59;87.76
46448;BME280;32145;50.390;30.778;2023-04-01T04:57:59;98809.91;;;6.63;88.10
46448;BME280;32145;50.390;30.778;2023-04-01T05:00:54;98810.50;;;6.65;88.21
46448;BME280;32145;50.390;30.778;2023-04-01T05:03:50;98812.25;;;6.71;87.59
46448;BME280;32145;50.390;30.778;2023-04-01T05:06:44;98810.16;;;6.73;88.22
46448;BME280;32145;50.390;30.778;2023-04-01T05:09:38;98800.44;;;6.72;87.70
46448;BME280;32145;50.390;30.778;2023-04-01T05:12:32;98809.56;;;6.71;87.81
46448;BME280;32145;50.390;30.778;2023-04-01T05:15:27;98808.41;;;6.79;87.28
46448;BME280;32145;50.390;30.778;2023-04-01T05:18:21;98809.81;;;6.81;87.74
46448;BME280;32145;50.390;30.778;2023-04-01T05:21:17;98815.28;;;6.87;87.58
46448;BME280;32145;50.390;30.778;2023-04-01T05:24:11;98810.03;;;6.92;87.61
46448;BME280;32145;50.390;30.778;2023-04-01T05:27:05;98818.00;;;6.99;87.27
46448;BME280;32145;50.390;30.778;2023-04-01T05:30:00;98811.16;;;7.08;86.99
46448;BME280;32145;50.390;30.778;2023-04-01T05:32:54;98811.63;;;7.05;86.86
46448;BME280;32145;50.390;30.778;2023-04-01T05:35:48;98800.41;;;7.08;87.32
46448;BME280;32145;50.390;30.778;2023-04-01T05:38:44;98813.97;;;7.13;87.10
46448;BME280;32145;50.390;30.778;2023-04-01T05:41:40;98818.19;;;7.21;86.52
46448;BME280;32145;50.390;30.778;2023-04-01T05:44:37;98821.22;;;7.25;86.81
46448;BME280;32145;50.390;30.778;2023-04-01T05:47:33;98819.72;;;7.17;86.06
46448;BME280;32145;50.390;30.778;2023-04-01T05:50:29;98817.97;;;7.11;86.43
46448;BME280;32145;50.390;30.778;2023-04-01T05:53:26;98816.44;;;7.15;86.34
46448;BME280;32145;50.390;30.778;2023-04-01T05:56:23;98810.56;;;7.30;86.62
46448;BME280;32145;50.390;30.778;2023-04-01T05:59:19;98820.25;;;7.43;86.61
46448;BME280;32145;50.390;30.778;2023-04-01T06:02:17;98826.13;;;7.40;85.44
46448;BME280;32145;50.390;30.778;2023-04-01T06:05:14;98833.63;;;7.38;85.85
46448;BME280;32145;50.390;30.778;2023-04-01T06:08:12;98825.75;;;7.48;85.61
46448;BME280;32145;50.390;30.778;2023-04-01T06:11:16;98840.16;;;7.54;85.25
46448;BME280;32145;50.390;30.778;2023-04-01T06:14:22;98844.44;;;7.67;84.88
46448;BME280;32145;50.390;30.778;2023-04-01T06:17:26;98845.28;;;7.67;84.89
46448;BME280;32145;50.390;30.778;2023-04-01T06:20:27;98843.97;;;7.70;85.04
46448;BME280;32145;50.390;30.778;2023-04-01T06:23:44;98846.44;;;7.71;84.54
46448;BME280;32145;50.390;30.778;2023-04-01T06:26:46;98847.50;;;7.58;84.34
46448;BME280;32145;50.390;30.778;2023-04-01T06:29:58;98846.66;;;7.70;83.99
46448;BME280;32145;50.390;30.778;2023-04-01T06:33:08;98850.19;;;7.70;83.89
46448;BME280;32145;50.390;30.778;2023-04-01T06:39:38;98847.56;;;7.88;83.83
46448;BME280;32145;50.390;30.778;2023-04-01T06:42:47;98854.09;;;7.92;83.57
46448;BME280;32145;50.390;30.778;2023-04-01T06:45:50;98852.44;;;7.91;83.30
46448;BME280;32145;50.390;30.778;2023-04-01T06:49:02;98846.56;;;7.94;82.96
46448;BME280;32145;50.390;30.778;2023-04-01T06:52:00;98832.91;;;8.00;83.40
46448;BME280;32145;50.390;30.778;2023-04-01T06:55:02;98836.28;;;8.08;82.93
46448;BME280;32145;50.390;30.778;2023-04-01T06:58:11;98834.22;;;8.27;82.88
46448;BME280;32145;50.390;30.778;2023-04-01T07:01:11;98833.13;;;8.28;82.26
46448;BME280;32145;50.390;30.778;2023-04-01T07:04:11;98844.13;;;8.56;82.26
46448;BME280;32145;50.390;30.778;2023-04-01T07:07:25;98852.19;;;8.68;81.70
46448;BME280;32145;50.390;30.778;2023-04-01T07:10:34;98839.38;;;8.80;81.42
46448;BME280;32145;50.390;30.778;2023-04-01T07:13:32;98844.13;;;8.90;81.42
46448;BME280;32145;50.390;30.778;2023-04-01T07:16:32;98856.06;;;8.94;80.93
46448;BME280;32145;50.390;30.778;2023-04-01T07:19:31;98857.94;;;8.94;80.42
46448;BME280;32145;50.390;30.778;2023-04-01T07:22:29;98854.91;;;9.07;80.67
46448;BME280;32145;50.390;30.778;2023-04-01T07:25:29;98847.44;;;9.14;79.98
46448;BME280;32145;50.390;30.778;2023-04-01T07:28:30;98857.41;;;9.31;79.96
46448;BME280;32145;50.390;30.778;2023-04-01T07:31:45;98853.69;;;9.37;79.61
46448;BME280;32145;50.390;30.778;2023-04-01T07:34:51;98853.75;;;9.43;78.99
46448;BME280;32145;50.390;30.778;2023-04-01T07:38:11;98857.72;;;9.35;78.61
46448;BME280;32145;50.390;30.778;2023-04-01T07:41:18;98854.56;;;9.43;78.68
46448;BME280;32145;50.390;30.778;2023-04-01T07:44:28;98861.44;;;9.51;78.61
46448;BME280;32145;50.390;30.778;2023-04-01T07:47:37;98853.13;;;9.58;78.67
46448;BME280;32145;50.390;30.778;2023-04-01T07:50:41;98855.19;;;9.73;77.96
46448;BME280;32145;50.390;30.778;2023-04-01T07:53:46;98850.34;;;9.75;77.46
46448;BME280;32145;50.390;30.778;2023-04-01T07:56:51;98848.63;;;9.91;77.91
46448;BME280;32145;50.390;30.778;2023-04-01T07:59:54;98847.97;;;10.06;77.92
46448;BME280;32145;50.390;30.778;2023-04-01T08:03:10;98845.59;;;10.15;77.00
46448;BME280;32145;50.390;30.778;2023-04-01T08:06:14;98848.63;;;10.18;77.11
46448;BME280;32145;50.390;30.778;2023-04-01T08:09:18;98842.44;;;10.23;77.00
46448;BME280;32145;50.390;30.778;2023-04-01T08:12:31;98855.31;;;10.38;76.80
46448;BME280;32145;50.390;30.778;2023-04-01T08:15:37;98858.03;;;10.38;75.54
46448;BME280;32145;50.390;30.778;2023-04-01T08:18:43;98863.38;;;10.61;75.65
46448;BME280;32145;50.390;30.778;2023-04-01T08:21:44;98871.91;;;10.75;75.71
46448;BME280;32145;50.390;30.778;2023-04-01T08:24:44;98875.25;;;10.54;74.06
46448;BME280;32145;50.390;30.778;2023-04-01T08:27:45;98892.31;;;10.50;74.01
46448;BME280;32145;50.390;30.778;2023-04-01T08:30:44;98888.13;;;10.42;73.60
46448;BME280;32145;50.390;30.778;2023-04-01T08:33:46;98892.81;;;10.47;74.16
46448;BME280;32145;50.390;30.778;2023-04-01T08:36:45;98887.22;;;10.59;74.54
46448;BME280;32145;50.390;30.778;2023-04-01T08:39:46;98883.22;;;10.66;74.14
46448;BME280;32145;50.390;30.778;2023-04-01T08:42:57;98895.19;;;10.70;72.93
46448;BME280;32145;50.390;30.778;2023-04-01T08:46:40;98898.38;;;10.62;72.67
46448;BME280;32145;50.390;30.778;2023-04-01T08:50:18;98895.41;;;10.64;73.64
46448;BME280;32145;50.390;30.778;2023-04-01T08:53:30;98891.56;;;10.60;72.37
46448;BME280;32145;50.390;30.778;2023-04-01T08:56:35;98890.13;;;10.52;73.15
46448;BME280;32145;50.390;30.778;2023-04-01T08:59:49;98881.50;;;10.55;72.70
46448;BME280;32145;50.390;30.778;2023-04-01T09:06:35;98881.78;;;10.59;73.13
46448;BME280;32145;50.390;30.778;2023-04-01T09:09:56;98880.38;;;10.51;72.51
46448;BME280;32145;50.390;30.778;2023-04-01T09:13:02;98886.19;;;10.65;73.23
46448;BME280;32145;50.390;30.778;2023-04-01T09:16:13;98880.03;;;10.75;72.66
46448;BME280;32145;50.390;30.778;2023-04-01T09:19:21;98877.38;;;10.85;73.38
46448;BME280;32145;50.390;30.778;2023-04-01T09:22:24;98876.38;;;10.96;73.16
46448;BME280;32145;50.390;30.778;2023-04-01T09:25:41;98874.88;;;11.16;72.66
46448;BME280;32145;50.390;30.778;2023-04-01T09:28:44;98881.72;;;11.24;72.74
46448;BME280;32145;50.390;30.778;2023-04-01T09:31:55;98875.78;;;11.27;71.52
46448;BME280;32145;50.390;30.778;2023-04-01T09:34:55;98884.16;;;11.26;72.49
46448;BME280;32145;50.390;30.778;2023-04-01T09:38:06;98879.03;;;11.29;72.44
46448;BME280;32145;50.390;30.778;2023-04-01T09:41:18;98881.81;;;11.45;71.95
46448;BME280;32145;50.390;30.778;2023-04-01T09:44:22;98880.59;;;11.79;71.95
46448;BME280;32145;50.390;30.778;2023-04-01T09:47:34;98878.53;;;12.12;70.91
46448;BME280;32145;50.390;30.778;2023-04-01T09:50:42;98885.13;;;12.37;70.09
46448;BME280;32145;50.390;30.778;2023-04-01T09:53:52;98875.34;;;12.52;68.75
46448;BME280;32145;50.390;30.778;2023-04-01T10:00:32;98867.72;;;12.43;67.98
46448;BME280;32145;50.390;30.778;2023-04-01T10:07:33;98868.81;;;12.73;67.79
46448;BME280;32145;50.390;30.778;2023-04-01T10:17:53;98855.22;;;12.89;65.94
46448;BME280;32145;50.390;30.778;2023-04-01T10:21:11;98857.91;;;13.10;67.13
46448;BME280;32145;50.390;30.778;2023-04-01T10:24:41;98852.97;;;13.17;66.14
46448;BME280;32145;50.390;30.778;2023-04-01T10:28:00;98847.56;;;13.07;66.08
46448;BME280;32145;50.390;30.778;2023-04-01T10:31:19;98841.84;;;12.98;65.25
46448;BME280;32145;50.390;30.778;2023-04-01T10:34:40;98845.94;;;12.95;66.04
46448;BME280;32145;50.390;30.778;2023-04-01T10:37:58;98845.09;;;13.05;66.43
46448;BME280;32145;50.390;30.778;2023-04-01T10:44:59;98846.94;;;13.31;65.44
46448;BME280;32145;50.390;30.778;2023-04-01T10:48:49;98843.16;;;13.32;64.95
46448;BME280;32145;50.390;30.778;2023-04-01T10:52:06;98833.00;;;13.48;65.41
46448;BME280;32145;50.390;30.778;2023-04-01T10:55:37;98826.50;;;13.49;64.79
46448;BME280;32145;50.390;30.778;2023-04-01T10:59:08;98827.31;;;13.49;64.23
46448;BME280;32145;50.390;30.778;2023-04-01T11:02:45;98818.53;;;13.63;63.23
46448;BME280;32145;50.390;30.778;2023-04-01T11:10:08;98829.72;;;14.07;63.00
46448;BME280;32145;50.390;30.778;2023-04-01T11:20:28;98830.66;;;14.32;61.69
46448;BME280;32145;50.390;30.778;2023-04-01T11:23:41;98829.50;;;14.43;61.84
46448;BME280;32145;50.390;30.778;2023-04-01T11:26:51;98822.06;;;14.49;61.33
46448;BME280;32145;50.390;30.778;2023-04-01T11:30:29;98819.66;;;14.42;61.37
46448;BME280;32145;50.390;30.778;2023-04-01T11:33:34;98812.19;;;14.23;61.53
46448;BME280;32145;50.390;30.778;2023-04-01T11:36:39;98812.78;;;14.15;61.16
46448;BME280;32145;50.390;30.778;2023-04-01T11:39:42;98817.25;;;13.95;60.89
46448;BME280;32145;50.390;30.778;2023-04-01T11:42:46;98811.34;;;13.83;59.85
46448;BME280;32145;50.390;30.778;2023-04-01T11:45:48;98797.28;;;13.65;60.43
46448;BME280;32145;50.390;30.778;2023-04-01T11:48:55;98792.28;;;13.83;60.53
46448;BME280;32145;50.390;30.778;2023-04-01T11:52:15;98783.50;;;13.96;61.16
46448;BME280;32145;50.390;30.778;2023-04-01T11:55:27;98784.56;;;13.95;60.51
46448;BME280;32145;50.390;30.778;2023-04-01T11:58:58;98781.03;;;13.95;60.73
46448;BME280;32145;50.390;30.778;2023-04-01T12:02:03;98778.06;;;13.91;60.93
46448;BME280;32145;50.390;30.778;2023-04-01T12:05:17;98777.50;;;13.94;61.23
46448;BME280;32145;50.390;30.778;2023-04-01T12:08:31;98771.00;;;13.90;61.20
46448;BME280;32145;50.390;30.778;2023-04-01T12:11:35;98768.81;;;13.92;61.41
46448;BME280;32145;50.390;30.778;2023-04-01T12:14:37;98772.31;;;13.98;61.26
46448;BME280;32145;50.390;30.778;2023-04-01T12:17:41;98778.00;;;14.01;60.83
46448;BME280;32145;50.390;30.778;2023-04-01T12:20:44;98773.94;;;13.99;60.69
46448;BME280;32145;50.390;30.778;2023-04-01T12:23:55;98759.97;;;14.05;61.09
46448;BME280;32145;50.390;30.778;2023-04-01T12:27:04;98762.66;;;14.11;61.05
46448;BME280;32145;50.390;30.778;2023-04-01T12:30:21;98760.41;;;14.23;60.81
46448;BME280;32145;50.390;30.778;2023-04-01T12:33:42;98759.19;;;14.35;60.45
46448;BME280;32145;50.390;30.778;2023-04-01T12:36:49;98757.22;;;14.46;60.41
46448;BME280;32145;50.390;30.778;2023-04-01T12:43:31;98764.78;;;14.49;58.78
46448;BME280;32145;50.390;30.778;2023-04-01T12:46:32;98759.44;;;14.38;58.14
46448;BME280;32145;50.390;30.778;2023-04-01T12:49:54;98749.81;;;14.46;58.12
46448;BME280;32145;50.390;30.778;2023-04-01T12:53:03;98747.56;;;14.53;58.67
46448;BME280;32145;50.390;30.778;2023-04-01T12:56:07;98750.06;;;14.50;58.50
46448;BME280;32145;50.390;30.778;2023-04-01T12:59:37;98741.63;;;14.51;58.27
46448;BME280;32145;50.390;30.778;2023-04-01T13:02:50;98748.78;;;14.42;57.83
46448;BME280;32145;50.390;30.778;2023-04-01T13:06:29;98743.72;;;14.30;56.57
46448;BME280;32145;50.390;30.778;2023-04-01T13:09:37;98754.97;;;14.18;56.49
46448;BME280;32145;50.390;30.778;2023-04-01T13:12:58;98753.91;;;14.14;56.66
46448;BME280;32145;50.390;30.778;2023-04-01T13:16:01;98754.25;;;14.07;56.92
46448;BME280;32145;50.390;30.778;2023-04-01T13:19:07;98753.75;;;14.00;57.27
46448;BME280;32145;50.390;30.778;2023-04-01T13:22:06;98745.06;;;13.98;57.46
46448;BME280;32145;50.390;30.778;2023-04-01T13:25:06;98741.78;;;13.96;57.50
46448;BME280;32145;50.390;30.778;2023-04-01T13:28:11;98741.56;;;13.92;57.42
46448;BME280;32145;50.390;30.778;2023-04-01T13:31:14;98744.28;;;13.92;57.47
46448;BME280;32145;50.390;30.778;2023-04-01T13:34:27;98736.69;;;13.89;57.10
46448;BME280;32145;50.390;30.778;2023-04-01T13:37:38;98743.78;;;13.85;57.66
46448;BME280;32145;50.390;30.778;2023-04-01T13:40:45;98740.00;;;13.81;57.97
46448;BME280;32145;50.390;30.778;2023-04-01T13:43:47;98745.19;;;13.77;58.46
46448;BME280;32145;50.390;30.778;2023-04-01T13:46:59;98739.22;;;13.75;58.43
46448;BME280;32145;50.390;30.778;2023-04-01T13:50:27;98737.63;;;13.69;57.73
46448;BME280;32145;50.390;30.778;2023-04-01T13:53:34;98733.88;;;13.59;58.69
46448;BME280;32145;50.390;30.778;2023-04-01T13:56:34;98743.94;;;13.59;58.72
46448;BME280;32145;50.390;30.778;2023-04-01T13:59:50;98737.47;;;13.44;58.69
46448;BME280;32145;50.390;30.778;2023-04-01T14:03:04;98736.16;;;13.36;58.91
46448;BME280;32145;50.390;30.778;2023-04-01T14:06:13;98731.56;;;13.26;58.75
46448;BME280;32145;50.390;30.778;2023-04-01T14:09:28;98737.03;;;13.21;58.89
46448;BME280;32145;50.390;30.778;2023-04-01T14:12:32;98742.25;;;13.12;59.44
46448;BME280;32145;50.390;30.778;2023-04-01T14:15:42;98739.56;;;13.07;59.37
46448;BME280;32145;50.390;30.778;2023-04-01T14:19:07;98739.28;;;13.04;59.66
46448;BME280;32145;50.390;30.778;2023-04-01T14:22:13;98734.13;;;12.97;60.10
46448;BME280;32145;50.390;30.778;2023-04-01T14:25:33;98732.28;;;12.92;60.63
46448;BME280;32145;50.390;30.778;2023-04-01T14:28:38;98725.75;;;12.88;60.66
46448;BME280;32145;50.390;30.778;2023-04-01T14:31:48;98727.66;;;12.87;60.77
46448;BME280;32145;50.390;30.778;2023-04-01T14:34:59;98728.75;;;12.86;61.06
46448;BME280;32145;50.390;30.778;2023-04-01T14:38:25;98733.38;;;12.86;61.23
46448;BME280;32145;50.390;30.778;2023-04-01T14:41:32;98734.47;;;12.80;61.43
46448;BME280;32145;50.390;30.778;2023-04-01T14:44:57;98747.25;;;12.74;61.86
46448;BME280;32145;50.390;30.778;2023-04-01T14:47:59;98746.75;;;12.56;62.56
46448;BME280;32145;50.390;30.778;2023-04-01T14:51:13;98762.53;;;12.44;64.40
46448;BME280;32145;50.390;30.778;2023-04-01T14:54:13;98768.00;;;12.28;65.12
46448;BME280;32145;50.390;30.778;2023-04-01T14:57:11;98771.53;;;12.13;66.19
46448;BME280;32145;50.390;30.778;2023-04-01T15:00:13;98763.34;;;11.97;67.56
46448;BME280;32145;50.390;30.778;2023-04-01T15:03:13;98769.84;;;11.86;68.20
46448;BME280;32145;50.390;30.778;2023-04-01T15:06:38;98762.22;;;11.78;69.34
46448;BME280;32145;50.390;30.778;2023-04-01T15:09:44;98767.63;;;11.72;68.72
46448;BME280;32145;50.390;30.778;2023-04-01T15:12:52;98760.03;;;11.69;69.02
46448;BME280;32145;50.390;30.778;2023-04-01T15:16:04;98763.28;;;11.66;69.43
46448;BME280;32145;50.390;30.778;2023-04-01T15:19:12;98762.19;;;11.62;69.54
46448;BME280;32145;50.390;30.778;2023-04-01T15:22:28;98763.28;;;11.61;70.12
46448;BME280;32145;50.390;30.778;2023-04-01T15:25:43;98766.53;;;11.58;69.79
46448;BME280;32145;50.390;30.778;2023-04-01T15:28:53;98765.44;;;11.54;70.22
46448;BME280;32145;50.390;30.778;2023-04-01T15:32:00;98768.66;;;11.51;70.61
46448;BME280;32145;50.390;30.778;2023-04-01T15:35:06;98773.53;;;11.48;70.50
46448;BME280;32145;50.390;30.778;2023-04-01T15:38:20;98774.88;;;11.46;71.10
46448;BME280;32145;50.390;30.778;2023-04-01T15:41:24;98793.59;;;11.37;71.38
46448;BME280;32145;50.390;30.778;2023-04-01T15:44:36;98795.75;;;11.35;71.68
46448;BME280;32145;50.390;30.778;2023-04-01T15:47:37;98796.00;;;11.28;71.33
46448;BME280;32145;50.390;30.778;2023-04-01T15:50:44;98801.38;;;11.18;72.17
46448;BME280;32145;50.390;30.778;2023-04-01T15:53:56;98800.00;;;11.10;73.31
46448;BME280;32145;50.390;30.778;2023-04-01T15:57:06;98803.72;;;10.99;73.07
46448;BME280;32145;50.390;30.778;2023-04-01T16:00:13;98810.16;;;10.87;73.27
46448;BME280;32145;50.390;30.778;2023-04-01T16:03:18;98800.09;;;10.82;73.24
46448;BME280;32145;50.390;30.778;2023-04-01T16:06:24;98814.47;;;10.83;73.26
46448;BME280;32145;50.390;30.778;2023-04-01T16:09:43;98812.00;;;10.76;73.35
46448;BME280;32145;50.390;30.778;2023-04-01T16:12:54;98815.47;;;10.72;73.13
46448;BME280;32145;50.390;30.778;2023-04-01T16:15:59;98819.25;;;10.65;73.39
46448;BME280;32145;50.390;30.778;2023-04-01T16:19:17;98820.31;;;10.64;73.16
46448;BME280;32145;50.390;30.778;2023-04-01T16:22:22;98824.34;;;10.56;73.80
46448;BME280;32145;50.390;30.778;2023-04-01T16:25:31;98823.22;;;10.52;73.61
46448;BME280;32145;50.390;30.778;2023-04-01T16:28:30;98828.03;;;10.45;74.35
46448;BME280;32145;50.390;30.778;2023-04-01T16:31:32;98840.97;;;10.43;74.05
46448;BME280;32145;50.390;30.778;2023-04-01T16:34:33;98840.69;;;10.39;74.00
46448;BME280;32145;50.390;30.778;2023-04-01T16:37:33;98843.66;;;10.38;74.48
46448;BME280;32145;50.390;30.778;2023-04-01T16:40:42;98848.25;;;10.37;75.41
46448;BME280;32145;50.390;30.778;2023-04-01T16:43:40;98854.72;;;10.31;74.65
46448;BME280;32145;50.390;30.778;2023-04-01T16:46:38;98852.25;;;10.29;75.19
46448;BME280;32145;50.390;30.778;2023-04-01T16:49:37;98853.59;;;10.27;75.56
46448;BME280;32145;50.390;30.778;2023-04-01T16:52:47;98857.63;;;10.24;76.70